sensor_id;sensor_type;location;lat;lon;timestamp;temperature;humidity
420;DHT22;42600;54.408;13.016;2024-01-15T00:00:51;1.70;92.70
420;DHT22;42600;54.408;13.016;2024-01-15T00:03:18;1.70;92.70
420;DHT22;42600;54.408;13.016;2024-01-15T00:05:46;1.70;92.70
420;DHT22;42600;54.408;13.016;2024-01-15T00:08:13;1.70;92.70
420;DHT22;42600;54.408;13.016;2024-01-15T00:10:39;1.70;92.70
420;DHT22;42600;54.408;13.016;2024-01-15T00:13:06;1.70;92.70
420;DHT22;42600;54.408;13.016;2024-01-15T00:15:33;1.70;92.70
420;DHT22;42600;54.408;13.016;2024-01-15T00:17:59;1.70;92.70
420;DHT22;42600;54.408;13.016;2024-01-15T00:20:26;1.60;92.70
420;DHT22;42600;54.408;13.016;2024-01-15T00:22:54;1.60;92.70
420;DHT22;42600;54.408;13.016;2024-01-15T00:25:21;1.60;92.70
420;DHT22;42600;54.408;13.016;2024-01-15T00:27:48;1.60;92.70
420;DHT22;42600;54.408;13.016;2024-01-15T00:30:15;1.60;92.70
420;DHT22;42600;54.408;13.016;2024-01-15T00:32:41;1.60;92.70
420;DHT22;42600;54.408;13.016;2024-01-15T00:35:08;1.60;92.70
420;DHT22;42600;54.408;13.016;2024-01-15T00:37:35;1.60;92.70
420;DHT22;42600;54.408;13.016;2024-01-15T00:40:04;1.60;92.70
420;DHT22;42600;54.408;13.016;2024-01-15T00:42:31;1.60;92.70
420;DHT22;42600;54.408;13.016;2024-01-15T00:44:57;1.50;92.70
420;DHT22;42600;54.408;13.016;2024-01-15T00:47:24;1.50;92.70
420;DHT22;42600;54.408;13.016;2024-01-15T00:49:51;1.50;92.70
420;DHT22;42600;54.408;13.016;2024-01-15T00:52:17;1.60;92.70
420;DHT22;42600;54.408;13.016;2024-01-15T00:54:44;1.50;92.70
420;DHT22;42600;54.408;13.016;2024-01-15T00:57:12;1.50;92.70
420;DHT22;42600;54.408;13.016;2024-01-15T00:59:38;1.50;92.70
420;DHT22;42600;54.408;13.016;2024-01-15T01:02:05;1.50;92.70
420;DHT22;42600;54.408;13.016;2024-01-15T01:04:32;1.50;92.70
420;DHT22;42600;54.408;13.016;2024-01-15T01:06:59;1.50;92.70
420;DHT22;42600;54.408;13.016;2024-01-15T01:09:25;1.50;92.70
420;DHT22;42600;54.408;13.016;2024-01-15T01:11:54;1.50;92.70
420;DHT22;42600;54.408;13.016;2024-01-15T01:14:22;1.50;92.70
420;DHT22;42600;54.408;13.016;2024-01-15T01:16:49;1.50;92.70
420;DHT22;42600;54.408;13.016;2024-01-15T01:19:15;1.50;92.70
420;DHT22;42600;54.408;13.016;2024-01-15T01:21:42;1.50;92.70
420;DHT22;42600;54.408;13.016;2024-01-15T01:24:09;1.50;92.70
420;DHT22;42600;54.408;13.016;2024-01-15T01:26:35;1.50;92.70
420;DHT22;42600;54.408;13.016;2024-01-15T01:29:02;1.50;92.70
420;DHT22;42600;54.408;13.016;2024-01-15T01:31:30;1.50;92.70
420;DHT22;42600;54.408;13.016;2024-01-15T01:33:56;1.50;92.70
420;DHT22;42600;54.408;13.016;2024-01-15T01:36:23;1.50;92.70
420;DHT22;42600;54.408;13.016;2024-01-15T01:38:49;1.50;92.70
420;DHT22;42600;54.408;13.016;2024-01-15T01:41:16;1.50;92.70
420;DHT22;42600;54.408;13.016;2024-01-15T01:43:43;1.50;92.70
420;DHT22;42600;54.408;13.016;2024-01-15T01:46:10;1.50;92.70
420;DHT22;42600;54.408;13.016;2024-01-15T01:48:39;1.50;92.70
420;DHT22;42600;54.408;13.016;2024-01-15T01:51:05;1.50;92.70
420;DHT22;42600;54.408;13.016;2024-01-15T01:53:34;1.50;92.70
420;DHT22;42600;54.408;13.016;2024-01-15T01:56:02;1.50;92.70
420;DHT22;42600;54.408;13.016;2024-01-15T01:58:30;1.50;92.70
420;DHT22;42600;54.408;13.016;2024-01-15T02:00:58;1.50;92.70
420;DHT22;42600;54.408;13.016;2024-01-15T02:03:25;1.50;92.70
420;DHT22;42600;54.408;13.016;2024-01-15T02:05:54;1.50;92.70
420;DHT22;42600;54.408;13.016;2024-01-15T02:08:21;1.50;92.70
420;DHT22;42600;54.408;13.016;2024-01-15T02:10:48;1.50;92.70
420;DHT22;42600;54.408;13.016;2024-01-15T02:13:15;1.50;92.70
420;DHT22;42600;54.408;13.016;2024-01-15T02:15:41;1.50;92.70
420;DHT22;42600;54.408;13.016;2024-01-15T02:18:08;1.50;92.70
420;DHT22;42600;54.408;13.016;2024-01-15T02:20:35;1.50;92.70
420;DHT22;42600;54.408;13.016;2024-01-15T02:23:08;1.50;92.70
420;DHT22;42600;54.408;13.016;2024-01-15T02:25:36;1.50;92.70
420;DHT22;42600;54.408;13.016;2024-01-15T02:28:04;1.50;92.70
420;DHT22;42600;54.408;13.016;2024-01-15T02:30:31;1.50;92.70
420;DHT22;42600;54.408;13.016;2024-01-15T02:32:58;1.50;92.70
420;DHT22;42600;54.408;13.016;2024-01-15T02:35:24;1.50;92.70
420;DHT22;42600;54.408;13.016;2024-01-15T02:37:51;1.60;92.70
420;DHT22;42600;54.408;13.016;2024-01-15T02:40:19;1.60;92.70
420;DHT22;42600;54.408;13.016;2024-01-15T02:42:45;1.60;92.70
420;DHT22;42600;54.408;13.016;2024-01-15T02:45:12;1.60;92.70
420;DHT22;42600;54.408;13.016;2024-01-15T02:47:38;1.60;92.70
420;DHT22;42600;54.408;13.016;2024-01-15T02:50:06;1.60;92.70
420;DHT22;42600;54.408;13.016;2024-01-15T02:52:32;1.60;92.70
420;DHT22;42600;54.408;13.016;2024-01-15T02:54:59;1.70;92.70
420;DHT22;42600;54.408;13.016;2024-01-15T02:57:27;1.60;92.70
420;DHT22;42600;54.408;13.016;2024-01-15T02:59:53;1.60;92.70
420;DHT22;42600;54.408;13.016;2024-01-15T03:02:20;1.60;92.70
420;DHT22;42600;54.408;13.016;2024-01-15T03:04:47;1.60;92.70
420;DHT22;42600;54.408;13.016;2024-01-15T03:07:13;1.60;92.70
420;DHT22;42600;54.408;13.016;2024-01-15T03:09:40;1.60;92.70
420;DHT22;42600;54.408;13.016;2024-01-15T03:12:07;1.60;92.70
420;DHT22;42600;54.408;13.016;2024-01-15T03:14:35;1.70;92.70
420;DHT22;42600;54.408;13.016;2024-01-15T03:17:01;1.70;92.70
420;DHT22;42600;54.408;13.016;2024-01-15T03:19:28;1.70;92.70
420;DHT22;42600;54.408;13.016;2024-01-15T03:21:55;1.70;92.70
420;DHT22;42600;54.408;13.016;2024-01-15T03:24:22;1.80;92.70
420;DHT22;42600;54.408;13.016;2024-01-15T03:26:49;1.80;92.70
420;DHT22;42600;54.408;13.016;2024-01-15T03:29:15;1.80;92.70
420;DHT22;42600;54.408;13.016;2024-01-15T03:31:43;1.80;92.70
420;DHT22;42600;54.408;13.016;2024-01-15T03:34:09;1.70;92.70
420;DHT22;42600;54.408;13.016;2024-01-15T03:36:36;1.60;92.70
420;DHT22;42600;54.408;13.016;2024-01-15T03:39:03;1.50;92.70
420;DHT22;42600;54.408;13.016;2024-01-15T03:41:29;1.50;92.70
420;DHT22;42600;54.408;13.016;2024-01-15T03:43:56;1.50;92.70
420;DHT22;42600;54.408;13.016;2024-01-15T03:46:24;1.50;92.70
420;DHT22;42600;54.408;13.016;2024-01-15T03:48:52;1.50;92.70
420;DHT22;42600;54.408;13.016;2024-01-15T03:51:19;1.50;92.70
420;DHT22;42600;54.408;13.016;2024-01-15T03:53:46;1.50;92.70
420;DHT22;42600;54.408;13.016;2024-01-15T03:56:13;1.50;92.70
420;DHT22;42600;54.408;13.016;2024-01-15T03:58:39;1.50;92.70
420;DHT22;42600;54.408;13.016;2024-01-15T04:01:08;1.50;92.70
420;DHT22;42600;54.408;13.016;2024-01-15T04:03:35;1.50;92.70
420;DHT22;42600;54.408;13.016;2024-01-15T04:06:03;1.50;92.70
420;DHT22;42600;54.408;13.016;2024-01-15T04:08:30;1.50;92.70
420;DHT22;42600;54.408;13.016;2024-01-15T04:10:57;1.50;92.70
420;DHT22;42600;54.408;13.016;2024-01-15T04:13:23;1.50;92.70
420;DHT22;42600;54.408;13.016;2024-01-15T04:15:50;1.50;92.70
420;DHT22;42600;54.408;13.016;2024-01-15T04:18:16;1.50;92.70
420;DHT22;42600;54.408;13.016;2024-01-15T04:20:43;1.40;92.70
420;DHT22;42600;54.408;13.016;2024-01-15T04:23:11;1.40;92.70
420;DHT22;42600;54.408;13.016;2024-01-15T04:25:38;1.50;92.70
420;DHT22;42600;54.408;13.016;2024-01-15T04:28:07;1.40;92.70
420;DHT22;42600;54.408;13.016;2024-01-15T04:30:34;1.50;92.70
420;DHT22;42600;54.408;13.016;2024-01-15T04:33:01;1.50;92.70
420;DHT22;42600;54.408;13.016;2024-01-15T04:35:27;1.50;92.70
420;DHT22;42600;54.408;13.016;2024-01-15T04:37:54;1.50;92.70
420;DHT22;42600;54.408;13.016;2024-01-15T04:40:22;1.50;92.70
420;DHT22;42600;54.408;13.016;2024-01-15T04:42:48;1.50;92.70
420;DHT22;42600;54.408;13.016;2024-01-15T04:45:15;1.50;92.70
420;DHT22;42600;54.408;13.016;2024-01-15T04:47:43;1.50;92.70
420;DHT22;42600;54.408;13.016;2024-01-15T04:50:10;1.50;92.70
420;DHT22;42600;54.408;13.016;2024-01-15T04:52:36;1.50;92.70
420;DHT22;42600;54.408;13.016;2024-01-15T04:55:03;1.50;92.70
420;DHT22;42600;54.408;13.016;2024-01-15T04:57:31;1.50;92.70
420;DHT22;42600;54.408;13.016;2024-01-15T04:59:58;1.50;92.70
420;DHT22;42600;54.408;13.016;2024-01-15T05:02:25;1.50;92.70
420;DHT22;42600;54.408;13.016;2024-01-15T05:04:51;1.50;92.70
420;DHT22;42600;54.408;13.016;2024-01-15T05:07:18;1.50;92.70
420;DHT22;42600;54.408;13.016;2024-01-15T05:09:44;1.40;92.70
420;DHT22;42600;54.408;13.016;2024-01-15T05:12:11;1.50;92.70
420;DHT22;42600;54.408;13.016;2024-01-15T05:14:40;1.50;92.70
420;DHT22;42600;54.408;13.016;2024-01-15T05:17:06;1.40;92.70
420;DHT22;42600;54.408;13.016;2024-01-15T05:19:33;1.50;92.70
420;DHT22;42600;54.408;13.016;2024-01-15T05:21:59;1.50;92.70
420;DHT22;42600;54.408;13.016;2024-01-15T05:24:26;1.50;92.70
420;DHT22;42600;54.408;13.016;2024-01-15T05:26:53;1.50;92.70
420;DHT22;42600;54.408;13.016;2024-01-15T05:29:19;1.50;92.70
420;DHT22;42600;54.408;13.016;2024-01-15T05:31:47;1.50;92.70
420;DHT22;42600;54.408;13.016;2024-01-15T05:34:14;1.50;92.70
420;DHT22;42600;54.408;13.016;2024-01-15T05:36:41;1.50;92.70
420;DHT22;42600;54.408;13.016;2024-01-15T05:39:06;1.40;92.70
420;DHT22;42600;54.408;13.016;2024-01-15T05:41:33;1.40;92.70
420;DHT22;42600;54.408;13.016;2024-01-15T05:44:00;1.40;92.70
420;DHT22;42600;54.408;13.016;2024-01-15T05:46:26;1.50;92.70
420;DHT22;42600;54.408;13.016;2024-01-15T05:48:54;1.40;92.70
420;DHT22;42600;54.408;13.016;2024-01-15T05:51:21;1.40;92.70
420;DHT22;42600;54.408;13.016;2024-01-15T05:53:47;1.50;92.70
420;DHT22;42600;54.408;13.016;2024-01-15T05:56:14;1.50;92.70
420;DHT22;42600;54.408;13.016;2024-01-15T05:58:41;1.40;92.70
420;DHT22;42600;54.408;13.016;2024-01-15T06:01:08;1.50;92.70
420;DHT22;42600;54.408;13.016;2024-01-15T06:03:34;1.50;92.70
420;DHT22;42600;54.408;13.016;2024-01-15T06:06:02;1.50;92.70
420;DHT22;42600;54.408;13.016;2024-01-15T06:08:29;1.50;92.70
420;DHT22;42600;54.408;13.016;2024-01-15T06:10:56;1.50;92.70
420;DHT22;42600;54.408;13.016;2024-01-15T06:13:23;1.50;92.70
420;DHT22;42600;54.408;13.016;2024-01-15T06:15:49;1.50;92.70
420;DHT22;42600;54.408;13.016;2024-01-15T06:18:16;1.50;92.70
420;DHT22;42600;54.408;13.016;2024-01-15T06:20:42;1.50;92.70
420;DHT22;42600;54.408;13.016;2024-01-15T06:23:10;1.40;92.70
420;DHT22;42600;54.408;13.016;2024-01-15T06:25:37;1.40;92.70
420;DHT22;42600;54.408;13.016;2024-01-15T06:28:04;1.40;92.70
420;DHT22;42600;54.408;13.016;2024-01-15T06:30:31;1.40;92.70
420;DHT22;42600;54.408;13.016;2024-01-15T06:32:57;1.40;92.70
420;DHT22;42600;54.408;13.016;2024-01-15T06:35:24;1.40;92.70
420;DHT22;42600;54.408;13.016;2024-01-15T06:37:51;1.40;92.70
420;DHT22;42600;54.408;13.016;2024-01-15T06:40:19;1.50;92.70
420;DHT22;42600;54.408;13.016;2024-01-15T06:42:45;1.40;92.70
420;DHT22;42600;54.408;13.016;2024-01-15T06:45:12;1.40;92.70
420;DHT22;42600;54.408;13.016;2024-01-15T06:47:39;1.30;92.70
420;DHT22;42600;54.408;13.016;2024-01-15T06:50:07;1.30;92.70
420;DHT22;42600;54.408;13.016;2024-01-15T06:52:34;1.30;92.70
420;DHT22;42600;54.408;13.016;2024-01-15T06:55:01;1.30;92.70
420;DHT22;42600;54.408;13.016;2024-01-15T06:57:29;1.30;92.70
420;DHT22;42600;54.408;13.016;2024-01-15T06:59:55;1.30;92.70
420;DHT22;42600;54.408;13.016;2024-01-15T07:02:22;1.30;92.70
420;DHT22;42600;54.408;13.016;2024-01-15T07:04:48;1.30;92.70
420;DHT22;42600;54.408;13.016;2024-01-15T07:07:15;1.30;92.70
420;DHT22;42600;54.408;13.016;2024-01-15T07:09:42;1.30;92.70
420;DHT22;42600;54.408;13.016;2024-01-15T07:12:09;1.20;92.70
420;DHT22;42600;54.408;13.016;2024-01-15T07:14:36;1.20;92.70
420;DHT22;42600;54.408;13.016;2024-01-15T07:17:03;1.20;92.70
420;DHT22;42600;54.408;13.016;2024-01-15T07:19:30;1.20;92.70
420;DHT22;42600;54.408;13.016;2024-01-15T07:21:56;1.10;92.70
420;DHT22;42600;54.408;13.016;2024-01-15T07:24:23;1.10;92.70
420;DHT22;42600;54.408;13.016;2024-01-15T07:26:49;1.10;92.70
420;DHT22;42600;54.408;13.016;2024-01-15T07:29:16;1.10;92.70
420;DHT22;42600;54.408;13.016;2024-01-15T07:31:49;1.10;92.70
420;DHT22;42600;54.408;13.016;2024-01-15T07:34:16;1.10;92.70
420;DHT22;42600;54.408;13.016;2024-01-15T07:36:43;1.10;92.70
420;DHT22;42600;54.408;13.016;2024-01-15T07:39:10;1.10;92.70
420;DHT22;42600;54.408;13.016;2024-01-15T07:41:37;1.10;92.70
420;DHT22;42600;54.408;13.016;2024-01-15T07:44:05;1.10;92.70
420;DHT22;42600;54.408;13.016;2024-01-15T07:46:31;1.10;92.70
420;DHT22;42600;54.408;13.016;2024-01-15T07:48:59;1.10;92.70
420;DHT22;42600;54.408;13.016;2024-01-15T07:51:26;1.10;92.70
420;DHT22;42600;54.408;13.016;2024-01-15T07:53:53;1.00;92.70
420;DHT22;42600;54.408;13.016;2024-01-15T07:56:20;1.00;92.70
420;DHT22;42600;54.408;13.016;2024-01-15T07:58:47;1.00;92.70
420;DHT22;42600;54.408;13.016;2024-01-15T08:01:14;1.00;92.70
420;DHT22;42600;54.408;13.016;2024-01-15T08:03:40;1.00;92.70
420;DHT22;42600;54.408;13.016;2024-01-15T08:06:08;1.00;92.70
420;DHT22;42600;54.408;13.016;2024-01-15T08:08:35;1.00;92.70
420;DHT22;42600;54.408;13.016;2024-01-15T08:11:02;1.00;92.70
420;DHT22;42600;54.408;13.016;2024-01-15T08:13:28;1.00;92.70
420;DHT22;42600;54.408;13.016;2024-01-15T08:15:56;0.90;92.70
420;DHT22;42600;54.408;13.016;2024-01-15T08:18:22;0.90;92.70
420;DHT22;42600;54.408;13.016;2024-01-15T08:20:49;0.90;92.70
420;DHT22;42600;54.408;13.016;2024-01-15T08:23:18;0.90;92.70
420;DHT22;42600;54.408;13.016;2024-01-15T08:25:45;0.90;92.70
420;DHT22;42600;54.408;13.016;2024-01-15T08:28:11;0.80;92.70
420;DHT22;42600;54.408;13.016;2024-01-15T08:30:38;0.80;92.70
420;DHT22;42600;54.408;13.016;2024-01-15T08:33:05;0.80;92.70
420;DHT22;42600;54.408;13.016;2024-01-15T08:35:31;0.70;92.70
420;DHT22;42600;54.408;13.016;2024-01-15T08:37:58;0.70;92.70
420;DHT22;42600;54.408;13.016;2024-01-15T08:40:26;0.60;92.70
420;DHT22;42600;54.408;13.016;2024-01-15T08:42:52;0.60;92.70
420;DHT22;42600;54.408;13.016;2024-01-15T08:45:19;0.60;92.70
420;DHT22;42600;54.408;13.016;2024-01-15T08:47:47;0.60;92.70
420;DHT22;42600;54.408;13.016;2024-01-15T08:50:13;0.60;92.70
420;DHT22;42600;54.408;13.016;2024-01-15T08:52:40;0.50;92.70
420;DHT22;42600;54.408;13.016;2024-01-15T08:55:07;0.50;92.70
420;DHT22;42600;54.408;13.016;2024-01-15T08:57:35;0.60;92.70
420;DHT22;42600;54.408;13.016;2024-01-15T09:00:02;0.60;92.70
420;DHT22;42600;54.408;13.016;2024-01-15T09:02:29;0.50;92.70
420;DHT22;42600;54.408;13.016;2024-01-15T09:04:56;0.50;92.70
420;DHT22;42600;54.408;13.016;2024-01-15T09:07:22;0.50;92.70
420;DHT22;42600;54.408;13.016;2024-01-15T09:09:50;0.50;92.70
420;DHT22;42600;54.408;13.016;2024-01-15T09:12:17;0.40;92.70
420;DHT22;42600;54.408;13.016;2024-01-15T09:14:47;0.40;92.70
420;DHT22;42600;54.408;13.016;2024-01-15T09:17:14;0.40;92.60
420;DHT22;42600;54.408;13.016;2024-01-15T09:19:41;0.40;92.70
420;DHT22;42600;54.408;13.016;2024-01-15T09:22:08;0.40;92.70
420;DHT22;42600;54.408;13.016;2024-01-15T09:24:34;0.40;92.70
420;DHT22;42600;54.408;13.016;2024-01-15T09:27:01;0.40;92.70
420;DHT22;42600;54.408;13.016;2024-01-15T09:29:28;0.40;92.10
420;DHT22;42600;54.408;13.016;2024-01-15T09:31:56;0.30;91.90
420;DHT22;42600;54.408;13.016;2024-01-15T09:34:23;0.30;92.00
420;DHT22;42600;54.408;13.016;2024-01-15T09:36:49;0.30;92.50
420;DHT22;42600;54.408;13.016;2024-01-15T09:39:16;0.30;92.60
420;DHT22;42600;54.408;13.016;2024-01-15T09:41:43;0.30;92.00
420;DHT22;42600;54.408;13.016;2024-01-15T09:44:10;0.30;92.30
420;DHT22;42600;54.408;13.016;2024-01-15T09:46:38;0.30;92.40
420;DHT22;42600;54.408;13.016;2024-01-15T09:49:07;0.30;92.50
420;DHT22;42600;54.408;13.016;2024-01-15T09:51:35;0.30;92.70
420;DHT22;42600;54.408;13.016;2024-01-15T09:54:02;0.20;92.70
420;DHT22;42600;54.408;13.016;2024-01-15T09:56:30;0.20;92.70
420;DHT22;42600;54.408;13.016;2024-01-15T09:58:57;0.20;92.70
420;DHT22;42600;54.408;13.016;2024-01-15T10:01:24;0.20;92.70
420;DHT22;42600;54.408;13.016;2024-01-15T10:03:51;0.30;92.70
420;DHT22;42600;54.408;13.016;2024-01-15T10:06:21;0.20;92.70
420;DHT22;42600;54.408;13.016;2024-01-15T10:08:49;0.20;92.70
420;DHT22;42600;54.408;13.016;2024-01-15T10:11:16;0.20;92.70
420;DHT22;42600;54.408;13.016;2024-01-15T10:13:43;0.20;92.70
420;DHT22;42600;54.408;13.016;2024-01-15T10:16:10;0.20;92.70
420;DHT22;42600;54.408;13.016;2024-01-15T10:18:37;0.20;92.70
420;DHT22;42600;54.408;13.016;2024-01-15T10:21:06;0.20;92.70
420;DHT22;42600;54.408;13.016;2024-01-15T10:23:34;0.10;91.90
420;DHT22;42600;54.408;13.016;2024-01-15T10:26:01;0.10;92.70
420;DHT22;42600;54.408;13.016;2024-01-15T10:28:29;0.20;92.50
420;DHT22;42600;54.408;13.016;2024-01-15T10:30:58;0.20;92.00
420;DHT22;42600;54.408;13.016;2024-01-15T10:33:25;0.20;91.50
420;DHT22;42600;54.408;13.016;2024-01-15T10:35:53;0.20;91.90
420;DHT22;42600;54.408;13.016;2024-01-15T10:38:20;0.20;92.10
420;DHT22;42600;54.408;13.016;2024-01-15T10:40:51;0.10;91.90
420;DHT22;42600;54.408;13.016;2024-01-15T10:43:18;0.20;92.10
420;DHT22;42600;54.408;13.016;2024-01-15T10:45:45;0.20;92.50
420;DHT22;42600;54.408;13.016;2024-01-15T10:48:12;0.20;92.30
420;DHT22;42600;54.408;13.016;2024-01-15T10:50:38;0.20;92.30
420;DHT22;42600;54.408;13.016;2024-01-15T10:53:05;0.20;92.20
420;DHT22;42600;54.408;13.016;2024-01-15T10:55:33;0.20;92.60
420;DHT22;42600;54.408;13.016;2024-01-15T10:58:03;0.10;91.60
420;DHT22;42600;54.408;13.016;2024-01-15T11:00:30;0.20;91.90
420;DHT22;42600;54.408;13.016;2024-01-15T11:02:56;0.10;92.10
420;DHT22;42600;54.408;13.016;2024-01-15T11:05:23;0.10;92.20
420;DHT22;42600;54.408;13.016;2024-01-15T11:07:55;0.20;92.70
420;DHT22;42600;54.408;13.016;2024-01-15T11:10:50;0.20;92.60
420;DHT22;42600;54.408;13.016;2024-01-15T11:13:42;0.10;92.70
420;DHT22;42600;54.408;13.016;2024-01-15T11:16:10;0.10;92.70
420;DHT22;42600;54.408;13.016;2024-01-15T11:18:40;0.10;92.70
420;DHT22;42600;54.408;13.016;2024-01-15T11:21:23;0.10;92.70
420;DHT22;42600;54.408;13.016;2024-01-15T11:23:52;0.20;92.70
420;DHT22;42600;54.408;13.016;2024-01-15T11:26:29;0.10;92.70
420;DHT22;42600;54.408;13.016;2024-01-15T11:28:58;0.10;92.70
420;DHT22;42600;54.408;13.016;2024-01-15T11:31:29;0.20;92.70
420;DHT22;42600;54.408;13.016;2024-01-15T11:33:56;0.20;92.70
420;DHT22;42600;54.408;13.016;2024-01-15T11:37:01;0.20;92.70
420;DHT22;42600;54.408;13.016;2024-01-15T11:39:41;0.10;92.70
420;DHT22;42600;54.408;13.016;2024-01-15T11:42:10;0.10;92.70
420;DHT22;42600;54.408;13.016;2024-01-15T11:44:38;0.00;92.70
420;DHT22;42600;54.408;13.016;2024-01-15T11:47:06;0.10;92.70
420;DHT22;42600;54.408;13.016;2024-01-15T11:49:58;0.10;92.70
420;DHT22;42600;54.408;13.016;2024-01-15T11:52:26;0.10;92.70
420;DHT22;42600;54.408;13.016;2024-01-15T11:55:07;0.10;92.70
420;DHT22;42600;54.408;13.016;2024-01-15T11:57:41;0.10;92.70
420;DHT22;42600;54.408;13.016;2024-01-15T12:00:14;0.00;92.70
420;DHT22;42600;54.408;13.016;2024-01-15T12:02:45;0.00;92.70
420;DHT22;42600;54.408;13.016;2024-01-15T12:05:12;0.00;92.70
420;DHT22;42600;54.408;13.016;2024-01-15T12:07:39;0.00;92.70
420;DHT22;42600;54.408;13.016;2024-01-15T12:10:09;0.00;92.70
420;DHT22;42600;54.408;13.016;2024-01-15T12:12:51;0.00;92.70
420;DHT22;42600;54.408;13.016;2024-01-15T12:15:21;0.00;92.70
420;DHT22;42600;54.408;13.016;2024-01-15T12:17:48;0.00;92.10
420;DHT22;42600;54.408;13.016;2024-01-15T12:20:15;0.00;92.60
420;DHT22;42600;54.408;13.016;2024-01-15T12:22:42;0.10;92.70
420;DHT22;42600;54.408;13.016;2024-01-15T12:25:09;0.00;91.70
420;DHT22;42600;54.408;13.016;2024-01-15T12:27:35;0.00;91.20
420;DHT22;42600;54.408;13.016;2024-01-15T12:30:02;-0.10;90.40
420;DHT22;42600;54.408;13.016;2024-01-15T12:32:30;0.00;90.50
420;DHT22;42600;54.408;13.016;2024-01-15T12:34:57;0.00;90.30
420;DHT22;42600;54.408;13.016;2024-01-15T12:37:24;0.00;89.70
420;DHT22;42600;54.408;13.016;2024-01-15T12:39:52;0.00;90.80
420;DHT22;42600;54.408;13.016;2024-01-15T12:42:21;0.10;91.80
420;DHT22;42600;54.408;13.016;2024-01-15T12:44:48;0.10;92.30
420;DHT22;42600;54.408;13.016;2024-01-15T12:47:14;0.00;91.50
420;DHT22;42600;54.408;13.016;2024-01-15T12:49:47;0.00;92.00
420;DHT22;42600;54.408;13.016;2024-01-15T12:52:15;0.10;92.30
420;DHT22;42600;54.408;13.016;2024-01-15T12:54:41;0.20;92.70
420;DHT22;42600;54.408;13.016;2024-01-15T12:57:08;0.20;92.70
420;DHT22;42600;54.408;13.016;2024-01-15T12:59:35;0.20;92.70
420;DHT22;42600;54.408;13.016;2024-01-15T13:02:01;0.20;92.70
420;DHT22;42600;54.408;13.016;2024-01-15T13:04:28;0.10;92.30
420;DHT22;42600;54.408;13.016;2024-01-15T13:06:56;0.00;92.20
420;DHT22;42600;54.408;13.016;2024-01-15T13:09:23;0.00;92.50
420;DHT22;42600;54.408;13.016;2024-01-15T13:11:49;0.00;92.70
420;DHT22;42600;54.408;13.016;2024-01-15T13:14:17;0.10;92.70
420;DHT22;42600;54.408;13.016;2024-01-15T13:16:44;0.00;91.80
420;DHT22;42600;54.408;13.016;2024-01-15T13:19:11;0.00;91.50
420;DHT22;42600;54.408;13.016;2024-01-15T13:21:38;0.00;91.90
420;DHT22;42600;54.408;13.016;2024-01-15T13:24:06;-0.10;91.70
420;DHT22;42600;54.408;13.016;2024-01-15T13:26:34;0.00;92.70
420;DHT22;42600;54.408;13.016;2024-01-15T13:29:01;0.00;92.70
420;DHT22;42600;54.408;13.016;2024-01-15T13:31:29;0.10;92.70
420;DHT22;42600;54.408;13.016;2024-01-15T13:33:56;-0.10;91.40
420;DHT22;42600;54.408;13.016;2024-01-15T13:36:23;-0.20;90.30
420;DHT22;42600;54.408;13.016;2024-01-15T13:38:50;-0.10;92.60
420;DHT22;42600;54.408;13.016;2024-01-15T13:41:18;-0.10;92.70
420;DHT22;42600;54.408;13.016;2024-01-15T13:43:45;-0.10;92.70
420;DHT22;42600;54.408;13.016;2024-01-15T13:46:12;-0.10;92.70
420;DHT22;42600;54.408;13.016;2024-01-15T13:48:38;-0.10;92.70
420;DHT22;42600;54.408;13.016;2024-01-15T13:51:05;-0.20;92.70
420;DHT22;42600;54.408;13.016;2024-01-15T13:53:31;-0.20;92.70
420;DHT22;42600;54.408;13.016;2024-01-15T13:55:58;-0.20;92.70
420;DHT22;42600;54.408;13.016;2024-01-15T13:58:26;-0.20;92.00
420;DHT22;42600;54.408;13.016;2024-01-15T14:00:53;-0.20;92.70
420;DHT22;42600;54.408;13.016;2024-01-15T14:03:19;-0.20;92.30
420;DHT22;42600;54.408;13.016;2024-01-15T14:05:46;-0.10;92.70
420;DHT22;42600;54.408;13.016;2024-01-15T14:08:12;-0.20;92.40
420;DHT22;42600;54.408;13.016;2024-01-15T14:10:39;-0.20;92.70
420;DHT22;42600;54.408;13.016;2024-01-15T14:13:06;-0.30;92.40
420;DHT22;42600;54.408;13.016;2024-01-15T14:15:34;-0.30;92.50
420;DHT22;42600;54.408;13.016;2024-01-15T14:18:00;-0.40;92.40
420;DHT22;42600;54.408;13.016;2024-01-15T14:20:27;-0.30;92.70
420;DHT22;42600;54.408;13.016;2024-01-15T14:22:54;-0.30;92.70
420;DHT22;42600;54.408;13.016;2024-01-15T14:25:20;-0.30;92.70
420;DHT22;42600;54.408;13.016;2024-01-15T14:27:47;-0.30;92.70
420;DHT22;42600;54.408;13.016;2024-01-15T14:30:14;-0.40;92.70
420;DHT22;42600;54.408;13.016;2024-01-15T14:32:42;-0.30;92.70
420;DHT22;42600;54.408;13.016;2024-01-15T14:35:09;-0.30;92.70
420;DHT22;42600;54.408;13.016;2024-01-15T14:37:36;-0.30;92.70
420;DHT22;42600;54.408;13.016;2024-01-15T14:40:03;-0.30;92.70
420;DHT22;42600;54.408;13.016;2024-01-15T14:42:30;-0.30;92.70
420;DHT22;42600;54.408;13.016;2024-01-15T14:44:57;-0.20;92.70
420;DHT22;42600;54.408;13.016;2024-01-15T14:47:23;-0.30;92.70
420;DHT22;42600;54.408;13.016;2024-01-15T14:49:51;-0.30;92.70
420;DHT22;42600;54.408;13.016;2024-01-15T14:52:18;-0.30;92.70
420;DHT22;42600;54.408;13.016;2024-01-15T14:54:45;-0.30;92.70
420;DHT22;42600;54.408;13.016;2024-01-15T14:57:13;-0.30;92.70
420;DHT22;42600;54.408;13.016;2024-01-15T14:59:39;-0.40;92.70
420;DHT22;42600;54.408;13.016;2024-01-15T15:02:06;-0.40;92.50
420;DHT22;42600;54.408;13.016;2024-01-15T15:04:33;-0.50;91.10
420;DHT22;42600;54.408;13.016;2024-01-15T15:07:01;-0.50;91.60
420;DHT22;42600;54.408;13.016;2024-01-15T15:09:27;-0.40;92.30
420;DHT22;42600;54.408;13.016;2024-01-15T15:11:54;-0.40;92.70
420;DHT22;42600;54.408;13.016;2024-01-15T15:14:21;-0.40;92.70
420;DHT22;42600;54.408;13.016;2024-01-15T15:16:47;-0.40;92.70
420;DHT22;42600;54.408;13.016;2024-01-15T15:19:14;-0.40;92.70
420;DHT22;42600;54.408;13.016;2024-01-15T15:21:42;-0.40;92.70
420;DHT22;42600;54.408;13.016;2024-01-15T15:24:10;-0.40;92.70
420;DHT22;42600;54.408;13.016;2024-01-15T15:26:37;-0.40;92.70
420;DHT22;42600;54.408;13.016;2024-01-15T15:29:04;-0.40;92.70
420;DHT22;42600;54.408;13.016;2024-01-15T15:31:30;-0.40;92.70
420;DHT22;42600;54.408;13.016;2024-01-15T15:33:57;-0.40;92.70
420;DHT22;42600;54.408;13.016;2024-01-15T15:36:23;-0.40;92.70
420;DHT22;42600;54.408;13.016;2024-01-15T15:38:50;-0.40;92.70
420;DHT22;42600;54.408;13.016;2024-01-15T15:41:18;-0.40;92.70
420;DHT22;42600;54.408;13.016;2024-01-15T15:43:44;-0.40;92.70
420;DHT22;42600;54.408;13.016;2024-01-15T15:46:11;-0.40;92.70
420;DHT22;42600;54.408;13.016;2024-01-15T15:48:38;-0.40;92.70
420;DHT22;42600;54.408;13.016;2024-01-15T15:51:04;-0.40;92.70
420;DHT22;42600;54.408;13.016;2024-01-15T15:53:31;-0.50;92.70
420;DHT22;42600;54.408;13.016;2024-01-15T15:55:57;-0.50;92.70
420;DHT22;42600;54.408;13.016;2024-01-15T15:58:25;-0.50;92.70
420;DHT22;42600;54.408;13.016;2024-01-15T16:00:52;-0.50;92.70